Terminal Aerodrome Forecast
Issued by NWS

Home | Current Version | Previous Version | Text Only | Print | Product List | Glossary On
Versions: 1 2 3 4 5 6 7 8 9 10 11 12 13 14
000
FTUS45 KPIH 301200 AAA
TAFSUN
TAF AMD
KSUN 301242Z 3013/3112 32009KT P6SM VCTS SCT060 BKN100CB
     FM301800 16008KT P6SM VCTS SCT060 BKN100CB
     FM302000 23014G25KT P6SM SCT060
     FM310200 31007KT P6SM VCSH SCT050 BKN100=

USA.gov is the U.S. government's official web portal to all federal, state and local government web resources and services.